createdAt,value
2022-08-31T00:02:36.580Z,4.00
2022-08-31T00:05:06.829Z,3.90
2022-08-31T00:07:36.596Z,4.00
2022-08-31T00:10:16.444Z,3.90
2022-08-31T00:12:50.678Z,3.80
2022-08-31T00:15:30.190Z,3.80
2022-08-31T00:17:59.822Z,3.90
2022-08-31T00:20:33.750Z,4.50
2022-08-31T00:23:10.610Z,4.70
2022-08-31T00:25:42.541Z,3.70
2022-08-31T00:28:14.409Z,4.40
2022-08-31T00:30:44.503Z,4.00
2022-08-31T00:33:14.308Z,3.80
2022-08-31T00:35:44.175Z,3.70
2022-08-31T00:38:14.463Z,3.40
2022-08-31T00:40:47.859Z,3.50
2022-08-31T00:43:44.006Z,3.30
2022-08-31T00:46:16.152Z,3.70
2022-08-31T00:49:07.390Z,3.80
2022-08-31T00:51:47.280Z,3.80
2022-08-31T00:54:20.480Z,4.00
2022-08-31T00:56:50.175Z,4.00
2022-08-31T00:59:22.554Z,3.40
2022-08-31T01:01:50.808Z,3.20
2022-08-31T01:04:20.006Z,4.30
2022-08-31T01:06:50.505Z,3.80
2022-08-31T01:09:22.768Z,3.60
2022-08-31T01:11:53.425Z,4.20
2022-08-31T01:14:21.460Z,4.00
2022-08-31T01:16:54.308Z,3.70
2022-08-31T01:19:55.828Z,3.40
2022-08-31T01:22:47.351Z,3.60
2022-08-31T01:25:17.445Z,3.80
2022-08-31T01:27:49.157Z,3.60
2022-08-31T01:30:26.823Z,3.60
2022-08-31T01:32:54.619Z,3.70
2022-08-31T01:35:24.194Z,3.60
2022-08-31T01:37:53.901Z,3.70
2022-08-31T01:40:36.150Z,3.90
2022-08-31T01:43:05.744Z,3.70
2022-08-31T01:45:35.112Z,3.60
2022-08-31T01:48:04.828Z,3.60
2022-08-31T01:50:36.069Z,4.00
2022-08-31T01:53:06.301Z,4.70
2022-08-31T01:55:34.307Z,3.80
2022-08-31T01:58:03.791Z,3.80
2022-08-31T02:00:33.654Z,3.90
2022-08-31T02:03:05.849Z,4.00
2022-08-31T02:05:37.718Z,3.90
2022-08-31T02:08:09.317Z,3.90
2022-08-31T02:10:39.880Z,3.80
2022-08-31T02:13:07.870Z,4.00
2022-08-31T02:15:38.524Z,3.90
2022-08-31T02:18:08.400Z,4.60
2022-08-31T02:20:39.143Z,4.10
2022-08-31T02:23:07.162Z,4.50
2022-08-31T02:25:35.180Z,4.30
2022-08-31T02:28:05.450Z,4.20
2022-08-31T02:30:35.142Z,4.30
2022-08-31T02:33:04.813Z,4.10
2022-08-31T02:35:34.912Z,4.30
2022-08-31T02:38:02.915Z,4.20
2022-08-31T02:40:33.937Z,4.40
2022-08-31T02:43:04.574Z,4.00
2022-08-31T02:45:34.078Z,4.30
2022-08-31T02:48:04.746Z,4.50
2022-08-31T02:50:34.669Z,4.50
2022-08-31T02:53:04.263Z,4.50
2022-08-31T02:55:32.228Z,5.00
2022-08-31T02:58:01.608Z,4.50
2022-08-31T03:00:31.667Z,4.30
2022-08-31T03:03:01.163Z,4.70
2022-08-31T03:05:32.060Z,5.00
2022-08-31T03:08:01.564Z,5.00
2022-08-31T03:10:31.198Z,4.90
2022-08-31T03:13:01.393Z,4.70
2022-08-31T03:15:31.174Z,4.50
2022-08-31T03:18:00.603Z,4.90
2022-08-31T03:20:35.849Z,4.60
2022-08-31T03:23:06.319Z,5.10
2022-08-31T03:25:34.199Z,5.00
2022-08-31T03:28:02.901Z,5.00
2022-08-31T03:30:36.118Z,4.90
2022-08-31T03:33:04.074Z,4.30
2022-08-31T03:35:35.668Z,4.80
2022-08-31T03:38:05.755Z,4.90
2022-08-31T03:40:33.557Z,4.50
2022-08-31T03:43:01.802Z,4.60
2022-08-31T03:45:34.066Z,4.60
2022-08-31T03:48:03.819Z,5.00
2022-08-31T03:50:33.859Z,4.70
2022-08-31T03:53:04.838Z,4.80
2022-08-31T03:55:36.874Z,5.50
2022-08-31T03:58:06.849Z,4.40
2022-08-31T04:00:38.921Z,4.70
2022-08-31T04:03:08.547Z,4.70
2022-08-31T04:05:44.292Z,4.50
2022-08-31T04:08:15.313Z,4.60
2022-08-31T04:10:47.620Z,4.90
2022-08-31T04:13:15.496Z,5.00
2022-08-31T04:15:44.236Z,4.50
2022-08-31T04:18:14.091Z,4.70
2022-08-31T04:20:42.801Z,4.70
2022-08-31T04:23:12.795Z,5.40
2022-08-31T04:25:43.267Z,5.70
2022-08-31T04:28:11.411Z,5.30
2022-08-31T04:30:44.340Z,5.40
2022-08-31T04:33:12.259Z,6.40
2022-08-31T04:35:42.483Z,7.10
2022-08-31T04:38:11.232Z,6.80
2022-08-31T04:40:43.577Z,7.20
2022-08-31T04:43:13.150Z,6.90
2022-08-31T04:45:44.647Z,6.40
2022-08-31T04:48:14.334Z,6.50
2022-08-31T04:50:43.839Z,7.30
2022-08-31T04:53:13.065Z,6.90
2022-08-31T04:55:44.185Z,7.20
2022-08-31T04:58:15.325Z,7.20
2022-08-31T05:00:45.374Z,6.80
2022-08-31T05:03:14.793Z,6.70
2022-08-31T05:05:44.324Z,7.80
2022-08-31T05:08:12.917Z,6.50
2022-08-31T05:10:41.875Z,6.60
2022-08-31T05:13:09.696Z,7.20
2022-08-31T05:15:43.881Z,6.70
2022-08-31T05:18:13.912Z,7.20
2022-08-31T05:20:41.919Z,7.10
2022-08-31T05:23:11.068Z,6.90
2022-08-31T05:25:40.695Z,6.40
2022-08-31T05:28:09.583Z,6.80
2022-08-31T05:30:37.749Z,7.50
2022-08-31T05:33:07.440Z,6.80
2022-08-31T05:35:36.518Z,7.10
2022-08-31T05:38:06.038Z,6.40
2022-08-31T05:40:33.831Z,7.50
2022-08-31T05:43:05.764Z,7.60
2022-08-31T05:45:35.094Z,6.60
2022-08-31T05:48:04.608Z,6.80
2022-08-31T05:50:32.357Z,6.90
2022-08-31T05:53:02.900Z,6.90
2022-08-31T05:55:32.877Z,6.70
2022-08-31T05:58:01.181Z,7.20
2022-08-31T06:00:29.002Z,6.90
2022-08-31T06:03:00.037Z,6.50
2022-08-31T06:05:29.414Z,6.50
2022-08-31T06:08:00.435Z,6.60
2022-08-31T06:10:28.598Z,6.50
2022-08-31T06:12:56.606Z,6.50
2022-08-31T06:15:24.491Z,6.20
2022-08-31T06:17:54.425Z,6.20
2022-08-31T06:20:23.870Z,5.70
2022-08-31T06:22:52.332Z,6.00
2022-08-31T06:25:21.943Z,5.70
2022-08-31T06:27:59.508Z,5.70
2022-08-31T06:30:27.606Z,5.80
2022-08-31T06:32:58.726Z,5.50
2022-08-31T06:35:30.204Z,6.60
2022-08-31T06:37:59.840Z,7.00
2022-08-31T06:40:31.794Z,6.60
2022-08-31T06:42:59.816Z,6.40
2022-08-31T06:45:27.814Z,6.70
2022-08-31T06:47:59.918Z,6.60
2022-08-31T06:50:27.936Z,7.50
2022-08-31T06:52:57.536Z,7.30
2022-08-31T06:55:26.959Z,7.00
2022-08-31T06:57:55.225Z,6.80
2022-08-31T07:00:24.876Z,6.40
2022-08-31T07:02:57.806Z,6.50
2022-08-31T07:05:27.663Z,6.60
2022-08-31T07:07:57.120Z,6.00
2022-08-31T07:10:26.621Z,6.10
2022-08-31T07:12:55.157Z,6.20
2022-08-31T07:15:23.011Z,6.80
2022-08-31T07:17:53.091Z,5.50
2022-08-31T07:20:21.216Z,5.70
2022-08-31T07:22:49.898Z,4.90
2022-08-31T07:25:18.632Z,4.70
2022-08-31T07:27:47.144Z,5.00
2022-08-31T07:30:15.130Z,5.20
2022-08-31T07:32:43.992Z,5.20
2022-08-31T07:35:11.887Z,4.50
2022-08-31T07:38:01.418Z,4.20
2022-08-31T07:40:50.751Z,4.30
2022-08-31T07:43:20.708Z,4.20
2022-08-31T07:45:49.298Z,4.00
2022-08-31T07:48:19.541Z,4.50
2022-08-31T07:50:49.210Z,4.00
2022-08-31T07:53:17.047Z,4.90
2022-08-31T07:55:48.885Z,4.60
2022-08-31T07:58:19.466Z,4.80
2022-08-31T08:00:48.564Z,4.10
2022-08-31T08:03:17.112Z,4.90
2022-08-31T08:05:48.183Z,4.50
2022-08-31T08:08:23.104Z,5.60
2022-08-31T08:10:53.124Z,4.50
2022-08-31T08:13:22.943Z,4.70
2022-08-31T08:15:52.291Z,4.40
2022-08-31T08:18:22.004Z,3.90
2022-08-31T08:20:52.276Z,3.90
2022-08-31T08:23:26.850Z,3.90
2022-08-31T08:26:07.612Z,3.70
2022-08-31T08:28:40.867Z,3.40
2022-08-31T08:31:16.880Z,4.00
2022-08-31T08:33:45.980Z,3.80
2022-08-31T08:36:18.684Z,3.80
2022-08-31T08:38:50.641Z,3.70
2022-08-31T08:41:22.191Z,3.80
2022-08-31T08:44:00.807Z,4.10
2022-08-31T08:46:44.433Z,4.10
2022-08-31T08:49:29.253Z,4.50
2022-08-31T08:52:04.551Z,3.90
2022-08-31T08:54:45.839Z,3.80
2022-08-31T08:57:43.911Z,3.80
2022-08-31T09:00:21.533Z,4.40
2022-08-31T09:03:22.186Z,4.20
2022-08-31T09:06:13.970Z,4.10
2022-08-31T09:09:21.716Z,4.60
2022-08-31T09:12:14.809Z,3.90
2022-08-31T09:14:48.355Z,4.30
2022-08-31T09:17:51.855Z,5.40
2022-08-31T09:20:19.768Z,4.10
2022-08-31T09:22:58.710Z,4.00
2022-08-31T09:25:58.883Z,4.00
2022-08-31T09:28:39.000Z,3.60
2022-08-31T09:31:06.854Z,5.00
2022-08-31T09:33:51.123Z,6.00
2022-08-31T09:36:24.611Z,5.50
2022-08-31T09:38:52.669Z,5.30
2022-08-31T09:41:31.705Z,4.20
2022-08-31T09:44:22.769Z,4.20
2022-08-31T09:46:55.245Z,4.20
2022-08-31T09:49:34.429Z,3.70
2022-08-31T09:52:20.418Z,4.30
2022-08-31T09:55:19.145Z,4.10
2022-08-31T09:57:57.364Z,3.70
2022-08-31T10:00:40.336Z,4.40
2022-08-31T10:03:31.384Z,3.90
2022-08-31T10:06:05.034Z,3.70
2022-08-31T10:08:58.167Z,4.20
2022-08-31T10:11:32.425Z,3.00
2022-08-31T10:22:05.461Z,3.10
2022-08-31T10:27:20.436Z,3.00
2022-08-31T10:30:06.918Z,2.90
2022-08-31T10:32:42.381Z,4.40
2022-08-31T10:35:15.019Z,3.20
2022-08-31T10:38:08.651Z,3.10
2022-08-31T10:40:44.340Z,3.30
2022-08-31T10:43:21.583Z,2.70
2022-08-31T10:45:53.378Z,3.30
2022-08-31T10:48:24.805Z,2.80
2022-08-31T10:51:20.563Z,2.60
2022-08-31T10:54:03.208Z,2.70
2022-08-31T10:57:03.022Z,3.10
2022-08-31T10:59:36.005Z,2.80
2022-08-31T11:02:40.596Z,2.50
2022-08-31T11:05:20.000Z,2.70
2022-08-31T11:08:06.264Z,2.40
2022-08-31T11:10:45.603Z,3.20
2022-08-31T11:13:45.132Z,7.80
2022-08-31T11:17:06.518Z,2.60
2022-08-31T11:19:52.829Z,2.80
2022-08-31T11:22:43.086Z,2.10
2022-08-31T11:25:26.653Z,2.20
2022-08-31T11:28:18.998Z,2.00
2022-08-31T11:30:50.241Z,2.20
2022-08-31T11:33:28.687Z,1.50
2022-08-31T11:36:07.754Z,1.80
2022-08-31T11:38:53.058Z,3.00
2022-08-31T11:41:49.902Z,1.80
2022-08-31T11:44:30.410Z,1.60
2022-08-31T11:47:07.549Z,1.90
2022-08-31T11:49:51.762Z,2.10
2022-08-31T11:52:29.779Z,1.70
2022-08-31T11:55:11.449Z,1.50
2022-08-31T11:58:07.940Z,1.90
2022-08-31T12:00:52.620Z,1.40
2022-08-31T12:03:51.781Z,1.20
2022-08-31T12:06:28.597Z,1.70
2022-08-31T12:09:18.209Z,1.50
2022-08-31T12:12:12.834Z,1.30
2022-08-31T12:15:08.102Z,1.30
2022-08-31T12:17:55.262Z,1.70
2022-08-31T12:21:03.058Z,1.40
2022-08-31T12:24:01.843Z,0.90
2022-08-31T12:26:45.799Z,1.40
2022-08-31T12:29:31.482Z,1.70
2022-08-31T12:32:30.378Z,1.10
2022-08-31T12:35:07.664Z,1.40
2022-08-31T12:37:39.020Z,1.50
2022-08-31T12:40:13.498Z,1.40
2022-08-31T12:43:03.384Z,1.10
2022-08-31T12:45:41.016Z,1.30
2022-08-31T12:48:25.292Z,1.50
2022-08-31T12:51:02.267Z,1.30
2022-08-31T12:53:46.113Z,0.80
2022-08-31T12:56:31.867Z,1.40
2022-08-31T12:59:13.559Z,1.30
2022-08-31T13:01:47.129Z,1.60
2022-08-31T13:04:18.200Z,1.50
2022-08-31T13:06:49.126Z,1.50
2022-08-31T13:09:35.724Z,1.20
2022-08-31T13:12:05.180Z,1.20
2022-08-31T13:14:43.847Z,1.60
2022-08-31T13:17:22.471Z,1.50
2022-08-31T13:19:57.930Z,1.40
2022-08-31T13:22:43.533Z,1.50
2022-08-31T13:25:35.889Z,1.50
2022-08-31T13:28:12.939Z,0.80
2022-08-31T13:30:55.209Z,1.10
2022-08-31T13:33:31.404Z,1.50
2022-08-31T13:36:07.888Z,1.50
2022-08-31T13:38:45.897Z,1.10
2022-08-31T13:41:28.420Z,1.20
2022-08-31T13:44:05.456Z,1.00
2022-08-31T13:46:43.442Z,1.00
2022-08-31T13:49:42.246Z,1.20
2022-08-31T13:52:27.712Z,1.40
2022-08-31T13:55:08.835Z,1.00
2022-08-31T13:57:40.403Z,1.40
2022-08-31T14:00:40.877Z,1.10
2022-08-31T14:03:46.691Z,1.00
2022-08-31T14:06:23.834Z,0.90
2022-08-31T14:09:03.532Z,1.40
2022-08-31T14:11:35.722Z,1.50
2022-08-31T14:14:12.925Z,1.70
2022-08-31T14:16:52.320Z,1.20
2022-08-31T14:19:44.293Z,1.20
2022-08-31T14:22:30.966Z,1.10
2022-08-31T14:25:02.144Z,1.20
2022-08-31T14:27:32.470Z,1.80
2022-08-31T14:30:01.697Z,1.20
2022-08-31T14:32:32.396Z,1.40
2022-08-31T14:35:02.666Z,1.10
2022-08-31T14:37:33.077Z,1.10
2022-08-31T14:40:07.430Z,1.20
2022-08-31T14:42:40.999Z,0.80
2022-08-31T14:45:18.787Z,1.20
2022-08-31T14:47:53.533Z,1.00
2022-08-31T14:50:24.975Z,0.80
2022-08-31T14:52:57.581Z,1.10
2022-08-31T14:55:31.351Z,1.20
2022-08-31T14:58:09.519Z,1.60
2022-08-31T15:00:51.033Z,1.60
2022-08-31T15:03:25.875Z,0.80
2022-08-31T15:05:59.172Z,2.50
2022-08-31T15:08:37.857Z,3.00
2022-08-31T15:11:09.835Z,2.30
2022-08-31T15:13:39.785Z,1.80
2022-08-31T15:16:14.647Z,1.70
2022-08-31T15:18:45.342Z,1.60
2022-08-31T15:21:13.358Z,0.90
2022-08-31T15:23:48.860Z,1.20
2022-08-31T15:26:21.635Z,1.30
2022-08-31T15:28:53.865Z,1.50
2022-08-31T15:31:27.086Z,1.60
2022-08-31T15:34:01.098Z,1.20
2022-08-31T15:36:29.035Z,1.60
2022-08-31T15:39:00.383Z,1.50
2022-08-31T15:41:31.473Z,1.50
2022-08-31T15:43:59.228Z,2.10
2022-08-31T15:46:53.629Z,1.70
2022-08-31T15:49:25.925Z,1.70
2022-08-31T15:51:55.450Z,1.30
2022-08-31T15:54:35.475Z,1.60
2022-08-31T15:57:06.248Z,1.80
2022-08-31T15:59:37.480Z,2.10
2022-08-31T16:02:07.381Z,1.90
2022-08-31T16:04:42.865Z,2.20
2022-08-31T16:07:13.789Z,2.60
2022-08-31T16:09:46.279Z,2.10
2022-08-31T16:12:16.712Z,2.10
2022-08-31T16:14:47.108Z,1.90
2022-08-31T16:17:20.528Z,1.80
2022-08-31T16:19:50.827Z,2.10
2022-08-31T16:22:21.163Z,2.50
2022-08-31T16:24:53.655Z,2.70
2022-08-31T16:27:22.920Z,2.40
2022-08-31T16:29:54.772Z,1.80
2022-08-31T16:32:22.522Z,1.90
2022-08-31T16:34:53.275Z,2.10
2022-08-31T16:37:22.883Z,1.80
2022-08-31T16:39:50.931Z,1.90
2022-08-31T16:42:20.055Z,1.50
2022-08-31T16:44:49.366Z,1.70
2022-08-31T16:47:20.542Z,1.50
2022-08-31T16:49:49.685Z,1.90
2022-08-31T16:52:26.581Z,2.10
2022-08-31T16:54:59.413Z,2.40
2022-08-31T16:57:32.730Z,1.90
2022-08-31T17:00:04.682Z,2.90
2022-08-31T17:02:34.516Z,2.90
2022-08-31T17:05:05.252Z,3.00
2022-08-31T17:07:34.619Z,3.20
2022-08-31T17:10:07.844Z,3.00
2022-08-31T17:15:09.457Z,2.60
2022-08-31T17:17:38.608Z,2.50
2022-08-31T17:20:08.541Z,2.30
2022-08-31T17:22:36.362Z,2.90
2022-08-31T17:25:05.030Z,2.40
2022-08-31T17:27:35.981Z,2.60
2022-08-31T17:30:07.402Z,2.80
2022-08-31T17:32:39.403Z,2.70
2022-08-31T17:35:19.318Z,2.60
2022-08-31T17:37:51.589Z,2.90
2022-08-31T17:40:21.297Z,3.40
2022-08-31T17:42:51.085Z,3.10
2022-08-31T17:45:20.727Z,3.00
2022-08-31T17:47:48.659Z,3.40
2022-08-31T17:50:20.214Z,3.20
2022-08-31T17:52:49.494Z,2.50
2022-08-31T17:55:17.596Z,2.90
2022-08-31T17:57:48.533Z,2.70
2022-08-31T18:00:20.684Z,3.90
2022-08-31T18:02:48.692Z,2.80
2022-08-31T18:05:18.188Z,3.40
2022-08-31T18:07:51.344Z,3.70
2022-08-31T18:10:20.461Z,4.40
2022-08-31T18:12:49.625Z,3.60
2022-08-31T18:15:19.267Z,4.50
2022-08-31T18:17:48.632Z,4.10
2022-08-31T18:20:17.932Z,3.80
2022-08-31T18:22:52.053Z,3.40
2022-08-31T18:25:20.670Z,3.60
2022-08-31T18:27:50.479Z,3.50
2022-08-31T18:30:20.815Z,4.00
2022-08-31T18:32:52.557Z,4.10
2022-08-31T18:35:21.661Z,4.20
2022-08-31T18:37:51.015Z,3.90
2022-08-31T18:40:39.117Z,4.10
2022-08-31T18:43:27.199Z,4.30
2022-08-31T18:45:55.145Z,3.70
2022-08-31T18:48:25.717Z,4.00
2022-08-31T18:50:56.963Z,4.50
2022-08-31T18:53:29.231Z,4.30
2022-08-31T18:56:07.446Z,4.70
2022-08-31T18:58:37.612Z,4.80
2022-08-31T19:01:11.465Z,4.90
2022-08-31T19:03:42.523Z,5.10
2022-08-31T19:06:18.969Z,4.70
2022-08-31T19:08:46.902Z,5.00
2022-08-31T19:11:20.475Z,5.30
2022-08-31T19:13:51.541Z,5.10
2022-08-31T19:16:26.857Z,5.60
2022-08-31T19:18:57.074Z,4.60
2022-08-31T19:21:31.675Z,5.40
2022-08-31T19:24:03.346Z,7.20
2022-08-31T19:26:40.505Z,14.10
2022-08-31T19:29:14.705Z,6.70
2022-08-31T19:31:46.923Z,5.50
2022-08-31T19:34:19.065Z,5.80
2022-08-31T19:36:51.443Z,5.20
2022-08-31T19:39:26.548Z,4.90
2022-08-31T19:41:59.288Z,5.40
2022-08-31T19:44:54.319Z,4.90
2022-08-31T19:47:26.635Z,23.40
2022-08-31T19:49:57.265Z,9.30
2022-08-31T19:52:27.639Z,5.70
2022-08-31T19:54:59.365Z,4.30
2022-08-31T19:57:27.595Z,4.90
2022-08-31T19:59:57.741Z,4.30
2022-08-31T20:02:29.250Z,5.00
2022-08-31T20:04:59.058Z,4.60
2022-08-31T20:07:29.700Z,4.80
2022-08-31T20:09:57.699Z,4.40
2022-08-31T20:12:26.252Z,4.80
2022-08-31T20:14:56.731Z,4.50
2022-08-31T20:17:32.428Z,4.90
2022-08-31T20:22:33.387Z,4.60
2022-08-31T20:25:04.528Z,5.00
2022-08-31T20:27:37.846Z,3.80
2022-08-31T20:32:36.685Z,4.40
2022-08-31T20:35:08.594Z,4.20
2022-08-31T20:37:40.186Z,9.50
2022-08-31T20:40:18.608Z,9.00
